Truckee, CA

11:45 AM PDT on July 25, 2016 (GMT -0700)
Sierra Meadows | | Change Station

Elev 5978 ft 39.32 °N, 120.17 °W | Updated 12 minutes ago

Clear
Clear
82.8 °F
Feels Like 80 °F
N
0.0
Wind Variable Wind from NNE

Today
High -- | Low -- °F
--% Chance of Precip.
Yesterday
High -- | Low -- °F
Precip. -- in
Pressure 30.26 in
Visibility 10.0 miles
Clouds Clear
Heat Index 80 °F
Dew Point 35 °F
Humidity 18%
Rainfall 0.00 in
Snow Depth Not available.
5:54 AM 8:18 PM
Waning Gibbous, 63% visible
METAR KTRK 251745Z 05003KT 10SM SKC 23/01 A3026 RMK NOSPECI FU LYR ALQDS
Pressure 30.26 in
Visibility 10.0 miles
Clouds Clear
Heat Index 80 °F
Dew Point 35 °F
Humidity 18%
Rainfall 0.00 in
Snow Depth Not available.
5:54 AM 8:18 PM
Waning Gibbous, 63% visible
METAR KTRK 251745Z 05003KT 10SM SKC 23/01 A3026 RMK NOSPECI FU LYR ALQDS

10-Day Weather Forecast

Almanac

Astronomy

Jul. 25, 2016 Rise Set
Actual Time
Civil Twilight
Nautical Twilight
Astronomical Twilight
Moon
Length of Visible Light
Length of Day
Tomorrow will be .
, % of the Moon is Illuminated

Today's Extremes

State Highs State Lows

Community

WunderPhotos

Upload Photos

1,927,370 photos uploaded!

WunderBlog® & News

Nearby

Air Quality

  Air Quality AQ Index Pollutant
Not available.

Snow Depth

Station Depth Elevation

Earthquake Activity

City Distance Mag. Time & Date
Minimum magnitude displayed is 2.5.

Coastal Water Temperatures

Place Temperature

Stations

Nearby Weather Stations

Station Location Temp. Windchill Dew Point Humidity Wind Precip. Elev Updated Type
                   

Watches & Warnings

There are currently no watches in effect.